sensor_id;sensor_type;location;lat;lon;timestamp;pressure;altitude;pressure_sealevel;temperature;humidity
41654;BME280;68687;52.030;7.110;2023-05-22T00:02:13;100705.78;;;18.38;75.53
41654;BME280;68687;52.030;7.110;2023-05-22T00:04:38;100716.78;;;18.43;75.70
41654;BME280;68687;52.030;7.110;2023-05-22T00:07:04;100710.94;;;18.28;77.30
41654;BME280;68687;52.030;7.110;2023-05-22T00:09:31;100706.44;;;18.21;78.01
41654;BME280;68687;52.030;7.110;2023-05-22T00:11:56;100715.03;;;18.18;78.80
41654;BME280;68687;52.030;7.110;2023-05-22T00:14:25;100709.00;;;18.16;78.39
41654;BME280;68687;52.030;7.110;2023-05-22T00:16:50;100714.97;;;18.07;79.93
41654;BME280;68687;52.030;7.110;2023-05-22T00:19:15;100719.75;;;18.11;80.13
41654;BME280;68687;52.030;7.110;2023-05-22T00:21:44;100713.84;;;18.14;80.05
41654;BME280;68687;52.030;7.110;2023-05-22T00:24:11;100723.38;;;18.05;80.76
41654;BME280;68687;52.030;7.110;2023-05-22T00:26:39;100709.75;;;18.23;78.93
41654;BME280;68687;52.030;7.110;2023-05-22T00:29:04;100705.63;;;18.33;79.75
41654;BME280;68687;52.030;7.110;2023-05-22T00:31:30;100710.69;;;18.29;79.34
41654;BME280;68687;52.030;7.110;2023-05-22T00:33:57;100705.84;;;18.31;78.97
41654;BME280;68687;52.030;7.110;2023-05-22T00:36:22;100699.69;;;18.24;79.74
41654;BME280;68687;52.030;7.110;2023-05-22T00:38:47;100712.59;;;18.29;79.84
41654;BME280;68687;52.030;7.110;2023-05-22T00:41:13;100711.53;;;18.30;80.94
41654;BME280;68687;52.030;7.110;2023-05-22T00:43:47;100705.63;;;18.33;80.65
41654;BME280;68687;52.030;7.110;2023-05-22T00:46:15;100704.63;;;18.15;82.58
41654;BME280;68687;52.030;7.110;2023-05-22T00:48:46;100712.56;;;18.17;82.82
41654;BME280;68687;52.030;7.110;2023-05-22T00:51:14;100707.34;;;18.15;84.17
41654;BME280;68687;52.030;7.110;2023-05-22T00:53:40;100695.56;;;18.21;81.85
41654;BME280;68687;52.030;7.110;2023-05-22T00:56:05;100694.72;;;18.21;81.64
41654;BME280;68687;52.030;7.110;2023-05-22T00:58:34;100695.19;;;18.18;79.96
41654;BME280;68687;52.030;7.110;2023-05-22T01:00:59;100691.19;;;18.32;80.51
41654;BME280;68687;52.030;7.110;2023-05-22T01:03:28;100694.16;;;18.31;80.09
41654;BME280;68687;52.030;7.110;2023-05-22T01:05:58;100693.31;;;18.30;81.50
41654;BME280;68687;52.030;7.110;2023-05-22T01:08:25;100697.34;;;18.28;81.51
41654;BME280;68687;52.030;7.110;2023-05-22T01:11:01;100698.41;;;18.27;80.04
41654;BME280;68687;52.030;7.110;2023-05-22T01:13:59;100690.84;;;18.29;80.49
41654;BME280;68687;52.030;7.110;2023-05-22T01:22:24;100693.91;;;18.20;81.01
41654;BME280;68687;52.030;7.110;2023-05-22T01:25:18;100698.63;;;18.13;80.40
41654;BME280;68687;52.030;7.110;2023-05-22T01:33:19;100708.72;;;18.06;80.06
41654;BME280;68687;52.030;7.110;2023-05-22T01:35:47;100697.72;;;18.01;80.13
41654;BME280;68687;52.030;7.110;2023-05-22T01:38:15;100698.31;;;18.03;80.41
41654;BME280;68687;52.030;7.110;2023-05-22T01:40:42;100688.28;;;18.04;79.84
41654;BME280;68687;52.030;7.110;2023-05-22T01:43:13;100704.63;;;18.15;78.84
41654;BME280;68687;52.030;7.110;2023-05-22T01:45:41;100699.81;;;18.17;78.15
41654;BME280;68687;52.030;7.110;2023-05-22T01:48:07;100705.69;;;18.14;78.01
41654;BME280;68687;52.030;7.110;2023-05-22T01:50:33;100697.31;;;18.16;78.22
41654;BME280;68687;52.030;7.110;2023-05-22T01:53:18;100699.97;;;18.04;80.03
41654;BME280;68687;52.030;7.110;2023-05-22T01:55:58;100701.19;;;18.08;78.83
41654;BME280;68687;52.030;7.110;2023-05-22T02:01:11;100700.34;;;18.08;78.85
41654;BME280;68687;52.030;7.110;2023-05-22T02:03:48;100705.78;;;18.08;78.64
41654;BME280;68687;52.030;7.110;2023-05-22T02:06:20;100700.44;;;18.01;79.19
41654;BME280;68687;52.030;7.110;2023-05-22T02:08:47;100688.94;;;17.87;80.91
41654;BME280;68687;52.030;7.110;2023-05-22T02:11:14;100687.59;;;17.78;81.66
41654;BME280;68687;52.030;7.110;2023-05-22T02:13:43;100684.50;;;17.75;81.10
41654;BME280;68687;52.030;7.110;2023-05-22T02:16:09;100691.38;;;17.77;81.93
41654;BME280;68687;52.030;7.110;2023-05-22T02:18:36;100684.38;;;17.70;81.70
41654;BME280;68687;52.030;7.110;2023-05-22T02:21:05;100688.75;;;17.71;82.43
41654;BME280;68687;52.030;7.110;2023-05-22T02:23:32;100687.38;;;17.61;81.43
41654;BME280;68687;52.030;7.110;2023-05-22T02:26:01;100690.22;;;17.67;82.46
41654;BME280;68687;52.030;7.110;2023-05-22T02:28:29;100687.06;;;17.51;82.41
41654;BME280;68687;52.030;7.110;2023-05-22T02:30:55;100683.94;;;17.54;81.98
41654;BME280;68687;52.030;7.110;2023-05-22T02:33:20;100679.69;;;17.58;83.07
41654;BME280;68687;52.030;7.110;2023-05-22T02:35:46;100670.88;;;17.45;83.11
41654;BME280;68687;52.030;7.110;2023-05-22T02:38:14;100666.50;;;17.44;83.61
41654;BME280;68687;52.030;7.110;2023-05-22T02:40:39;100674.88;;;17.42;83.05
41654;BME280;68687;52.030;7.110;2023-05-22T02:43:05;100676.66;;;17.48;83.30
41654;BME280;68687;52.030;7.110;2023-05-22T02:45:31;100662.22;;;17.36;83.73
41654;BME280;68687;52.030;7.110;2023-05-22T02:47:56;100654.91;;;17.37;83.53
41654;BME280;68687;52.030;7.110;2023-05-22T02:50:22;100653.25;;;17.36;83.61
41654;BME280;68687;52.030;7.110;2023-05-22T02:52:47;100659.50;;;17.36;83.69
41654;BME280;68687;52.030;7.110;2023-05-22T02:55:14;100658.31;;;17.32;83.79
41654;BME280;68687;52.030;7.110;2023-05-22T02:57:39;100642.53;;;17.22;85.06
41654;BME280;68687;52.030;7.110;2023-05-22T03:00:05;100644.66;;;17.20;84.18
41654;BME280;68687;52.030;7.110;2023-05-22T03:02:31;100646.69;;;17.25;83.78
41654;BME280;68687;52.030;7.110;2023-05-22T03:04:59;100633.81;;;17.20;83.48
41654;BME280;68687;52.030;7.110;2023-05-22T03:07:24;100638.84;;;17.17;83.80
41654;BME280;68687;52.030;7.110;2023-05-22T03:09:56;100644.50;;;17.15;83.54
41654;BME280;68687;52.030;7.110;2023-05-22T03:12:22;100638.19;;;17.21;82.70
41654;BME280;68687;52.030;7.110;2023-05-22T03:14:47;100643.81;;;17.20;83.42
41654;BME280;68687;52.030;7.110;2023-05-22T03:17:12;100644.75;;;17.14;83.71
41654;BME280;68687;52.030;7.110;2023-05-22T03:19:38;100642.63;;;17.16;84.26
41654;BME280;68687;52.030;7.110;2023-05-22T03:22:03;100634.34;;;17.11;84.51
41654;BME280;68687;52.030;7.110;2023-05-22T03:24:28;100634.66;;;17.03;85.20
41654;BME280;68687;52.030;7.110;2023-05-22T03:26:54;100621.09;;;17.03;85.55
41654;BME280;68687;52.030;7.110;2023-05-22T03:29:19;100627.16;;;16.98;86.24
41654;BME280;68687;52.030;7.110;2023-05-22T03:31:45;100622.06;;;16.90;86.14
41654;BME280;68687;52.030;7.110;2023-05-22T03:34:11;100612.13;;;16.84;85.38
41654;BME280;68687;52.030;7.110;2023-05-22T03:36:39;100609.31;;;16.90;85.97
41654;BME280;68687;52.030;7.110;2023-05-22T03:39:11;100606.25;;;16.87;85.04
41654;BME280;68687;52.030;7.110;2023-05-22T03:41:36;100596.69;;;16.84;85.54
41654;BME280;68687;52.030;7.110;2023-05-22T03:44:02;100598.78;;;16.82;85.78
41654;BME280;68687;52.030;7.110;2023-05-22T03:46:27;100592.53;;;16.82;85.45
41654;BME280;68687;52.030;7.110;2023-05-22T03:48:52;100587.78;;;16.77;85.90
41654;BME280;68687;52.030;7.110;2023-05-22T03:51:18;100589.72;;;16.70;85.26
41654;BME280;68687;52.030;7.110;2023-05-22T03:53:43;100593.38;;;16.82;85.12
41654;BME280;68687;52.030;7.110;2023-05-22T03:56:15;100587.03;;;16.88;83.84
41654;BME280;68687;52.030;7.110;2023-05-22T03:58:43;100585.69;;;16.79;84.55
41654;BME280;68687;52.030;7.110;2023-05-22T04:01:08;100582.38;;;16.77;83.32
41654;BME280;68687;52.030;7.110;2023-05-22T04:03:36;100590.34;;;16.90;84.49
41654;BME280;68687;52.030;7.110;2023-05-22T04:06:01;100579.97;;;16.87;84.05
41654;BME280;68687;52.030;7.110;2023-05-22T04:08:27;100587.56;;;16.79;85.23
41654;BME280;68687;52.030;7.110;2023-05-22T04:10:52;100593.91;;;16.73;85.68
41654;BME280;68687;52.030;7.110;2023-05-22T04:13:18;100592.25;;;16.72;86.10
41654;BME280;68687;52.030;7.110;2023-05-22T04:15:43;100581.00;;;16.68;85.75
41654;BME280;68687;52.030;7.110;2023-05-22T04:18:10;100590.19;;;16.67;86.00
41654;BME280;68687;52.030;7.110;2023-05-22T04:20:36;100600.56;;;16.70;85.98
41654;BME280;68687;52.030;7.110;2023-05-22T04:23:02;100593.59;;;16.56;87.73
41654;BME280;68687;52.030;7.110;2023-05-22T04:25:27;100598.41;;;16.54;87.46
41654;BME280;68687;52.030;7.110;2023-05-22T04:27:52;100602.66;;;16.43;87.97
41654;BME280;68687;52.030;7.110;2023-05-22T04:30:18;100610.09;;;16.54;87.96
41654;BME280;68687;52.030;7.110;2023-05-22T04:32:43;100607.31;;;16.61;86.31
41654;BME280;68687;52.030;7.110;2023-05-22T04:35:09;100612.34;;;16.57;87.54
41654;BME280;68687;52.030;7.110;2023-05-22T04:37:36;100611.84;;;16.67;87.84
41654;BME280;68687;52.030;7.110;2023-05-22T04:40:09;100608.22;;;16.55;88.16
41654;BME280;68687;52.030;7.110;2023-05-22T04:42:36;100603.53;;;16.62;87.04
41654;BME280;68687;52.030;7.110;2023-05-22T04:45:03;100604.56;;;16.67;88.16
41654;BME280;68687;52.030;7.110;2023-05-22T04:47:28;100607.22;;;16.74;87.90
41654;BME280;68687;52.030;7.110;2023-05-22T04:50:01;100617.28;;;16.67;87.82
41654;BME280;68687;52.030;7.110;2023-05-22T04:52:26;100607.97;;;16.81;86.87
41654;BME280;68687;52.030;7.110;2023-05-22T04:54:52;100610.22;;;16.84;87.00
41654;BME280;68687;52.030;7.110;2023-05-22T04:57:18;100602.78;;;16.80;87.01
41654;BME280;68687;52.030;7.110;2023-05-22T04:59:45;100600.72;;;16.93;85.89
41654;BME280;68687;52.030;7.110;2023-05-22T05:02:12;100603.53;;;17.05;85.47
41654;BME280;68687;52.030;7.110;2023-05-22T05:04:37;100602.72;;;17.05;85.62
41654;BME280;68687;52.030;7.110;2023-05-22T05:07:03;100599.63;;;17.01;86.17
41654;BME280;68687;52.030;7.110;2023-05-22T05:09:32;100604.38;;;17.06;85.54
41654;BME280;68687;52.030;7.110;2023-05-22T05:11:58;100605.56;;;17.10;85.75
41654;BME280;68687;52.030;7.110;2023-05-22T05:14:23;100599.19;;;17.04;86.28
41654;BME280;68687;52.030;7.110;2023-05-22T05:16:49;100603.59;;;17.17;85.19
41654;BME280;68687;52.030;7.110;2023-05-22T05:19:18;100608.44;;;17.15;85.10
41654;BME280;68687;52.030;7.110;2023-05-22T05:21:46;100605.94;;;17.13;84.82
41654;BME280;68687;52.030;7.110;2023-05-22T05:24:11;100596.38;;;17.29;84.11
41654;BME280;68687;52.030;7.110;2023-05-22T05:26:37;100604.78;;;17.21;85.10
41654;BME280;68687;52.030;7.110;2023-05-22T05:29:02;100604.78;;;17.39;84.00
41654;BME280;68687;52.030;7.110;2023-05-22T05:31:27;100610.78;;;17.59;82.69
41654;BME280;68687;52.030;7.110;2023-05-22T05:33:53;100614.44;;;17.35;83.86
41654;BME280;68687;52.030;7.110;2023-05-22T05:36:20;100615.88;;;17.38;85.06
41654;BME280;68687;52.030;7.110;2023-05-22T05:38:45;100623.91;;;17.44;85.40
41654;BME280;68687;52.030;7.110;2023-05-22T05:41:11;100635.91;;;17.37;85.52
41654;BME280;68687;52.030;7.110;2023-05-22T05:43:36;100634.31;;;17.47;85.13
41654;BME280;68687;52.030;7.110;2023-05-22T05:46:01;100641.38;;;17.48;85.56
41654;BME280;68687;52.030;7.110;2023-05-22T05:48:27;100634.00;;;17.55;85.12
41654;BME280;68687;52.030;7.110;2023-05-22T05:50:55;100643.56;;;17.76;84.07
41654;BME280;68687;52.030;7.110;2023-05-22T05:53:20;100633.69;;;17.64;84.60
41654;BME280;68687;52.030;7.110;2023-05-22T05:55:46;100650.50;;;17.72;84.47
41654;BME280;68687;52.030;7.110;2023-05-22T05:58:14;100648.97;;;17.76;84.42
41654;BME280;68687;52.030;7.110;2023-05-22T06:00:40;100648.91;;;17.83;83.82
41654;BME280;68687;52.030;7.110;2023-05-22T06:03:06;100660.69;;;18.18;81.84
41654;BME280;68687;52.030;7.110;2023-05-22T06:05:31;100643.81;;;18.16;82.25
41654;BME280;68687;52.030;7.110;2023-05-22T06:07:56;100642.41;;;18.26;81.29
41654;BME280;68687;52.030;7.110;2023-05-22T06:10:22;100648.66;;;18.26;81.63
41654;BME280;68687;52.030;7.110;2023-05-22T06:12:51;100645.03;;;18.44;81.62
41654;BME280;68687;52.030;7.110;2023-05-22T06:15:16;100643.50;;;18.36;81.23
41654;BME280;68687;52.030;7.110;2023-05-22T06:17:44;100647.41;;;18.52;80.75
41654;BME280;68687;52.030;7.110;2023-05-22T06:20:10;100643.84;;;18.51;80.77
41654;BME280;68687;52.030;7.110;2023-05-22T06:22:36;100645.31;;;18.77;78.96
41654;BME280;68687;52.030;7.110;2023-05-22T06:25:01;100645.09;;;18.91;78.11
41654;BME280;68687;52.030;7.110;2023-05-22T06:27:32;100648.28;;;18.76;78.48
41654;BME280;68687;52.030;7.110;2023-05-22T06:29:58;100642.31;;;18.44;78.81
41654;BME280;68687;52.030;7.110;2023-05-22T06:32:27;100649.41;;;18.57;78.68
41654;BME280;68687;52.030;7.110;2023-05-22T06:34:52;100646.94;;;18.55;78.87
41654;BME280;68687;52.030;7.110;2023-05-22T06:37:18;100655.50;;;18.70;77.70
41654;BME280;68687;52.030;7.110;2023-05-22T06:39:43;100654.06;;;18.79;77.78
41654;BME280;68687;52.030;7.110;2023-05-22T06:42:11;100652.53;;;18.95;77.59
41654;BME280;68687;52.030;7.110;2023-05-22T06:44:36;100655.59;;;18.99;77.13
41654;BME280;68687;52.030;7.110;2023-05-22T06:47:02;100649.19;;;19.05;76.35
41654;BME280;68687;52.030;7.110;2023-05-22T06:49:27;100657.84;;;19.02;75.96
41654;BME280;68687;52.030;7.110;2023-05-22T06:51:52;100658.78;;;19.19;76.13
41654;BME280;68687;52.030;7.110;2023-05-22T06:54:21;100659.75;;;19.41;75.03
41654;BME280;68687;52.030;7.110;2023-05-22T06:56:46;100663.13;;;19.72;74.16
41654;BME280;68687;52.030;7.110;2023-05-22T06:59:14;100664.50;;;19.86;72.74
41654;BME280;68687;52.030;7.110;2023-05-22T07:01:39;100662.19;;;19.95;72.98
41654;BME280;68687;52.030;7.110;2023-05-22T07:04:05;100666.09;;;19.99;72.82
41654;BME280;68687;52.030;7.110;2023-05-22T07:06:31;100675.03;;;20.11;73.22
41654;BME280;68687;52.030;7.110;2023-05-22T07:08:58;100682.06;;;20.07;74.04
41654;BME280;68687;52.030;7.110;2023-05-22T07:11:23;100677.69;;;20.23;74.14
41654;BME280;68687;52.030;7.110;2023-05-22T07:13:48;100680.03;;;20.31;71.32
41654;BME280;68687;52.030;7.110;2023-05-22T07:16:14;100686.75;;;20.40;71.10
41654;BME280;68687;52.030;7.110;2023-05-22T07:18:39;100682.59;;;20.37;70.68
41654;BME280;68687;52.030;7.110;2023-05-22T07:21:05;100692.41;;;20.22;71.24
41654;BME280;68687;52.030;7.110;2023-05-22T07:23:34;100693.72;;;20.19;70.86
41654;BME280;68687;52.030;7.110;2023-05-22T07:25:59;100700.06;;;20.53;70.39
41654;BME280;68687;52.030;7.110;2023-05-22T07:28:28;100696.38;;;20.59;70.35
41654;BME280;68687;52.030;7.110;2023-05-22T07:30:56;100691.47;;;20.61;70.09
41654;BME280;68687;52.030;7.110;2023-05-22T07:33:22;100697.41;;;20.75;70.09
41654;BME280;68687;52.030;7.110;2023-05-22T07:35:47;100693.47;;;20.83;69.51
41654;BME280;68687;52.030;7.110;2023-05-22T07:38:15;100694.25;;;21.00;67.56
41654;BME280;68687;52.030;7.110;2023-05-22T07:40:41;100700.81;;;20.82;67.64
41654;BME280;68687;52.030;7.110;2023-05-22T07:43:09;100695.00;;;20.79;68.17
41654;BME280;68687;52.030;7.110;2023-05-22T07:45:34;100695.50;;;21.09;67.63
41654;BME280;68687;52.030;7.110;2023-05-22T07:48:00;100696.00;;;21.45;67.56
41654;BME280;68687;52.030;7.110;2023-05-22T07:50:30;100691.53;;;21.82;65.96
41654;BME280;68687;52.030;7.110;2023-05-22T07:52:57;100696.03;;;21.94;64.45
41654;BME280;68687;52.030;7.110;2023-05-22T07:55:22;100687.97;;;21.82;64.76
41654;BME280;68687;52.030;7.110;2023-05-22T07:57:47;100692.13;;;22.11;64.72
41654;BME280;68687;52.030;7.110;2023-05-22T08:00:13;100695.97;;;21.88;64.50
41654;BME280;68687;52.030;7.110;2023-05-22T08:02:39;100697.66;;;22.16;66.37
41654;BME280;68687;52.030;7.110;2023-05-22T08:05:06;100692.00;;;22.55;63.46
41654;BME280;68687;52.030;7.110;2023-05-22T08:07:32;100692.34;;;22.32;63.10
41654;BME280;68687;52.030;7.110;2023-05-22T08:10:02;100692.16;;;22.75;62.86
41654;BME280;68687;52.030;7.110;2023-05-22T08:12:28;100697.38;;;22.77;61.80
41654;BME280;68687;52.030;7.110;2023-05-22T08:14:56;100700.00;;;22.99;61.28
41654;BME280;68687;52.030;7.110;2023-05-22T08:17:21;100696.44;;;22.98;62.06
41654;BME280;68687;52.030;7.110;2023-05-22T08:19:46;100698.63;;;22.96;62.03
41654;BME280;68687;52.030;7.110;2023-05-22T08:22:14;100701.06;;;23.35;61.30
41654;BME280;68687;52.030;7.110;2023-05-22T08:24:40;100703.78;;;23.30;60.92
41654;BME280;68687;52.030;7.110;2023-05-22T08:27:05;100696.69;;;23.44;62.08
41654;BME280;68687;52.030;7.110;2023-05-22T08:29:34;100700.81;;;23.47;59.84
41654;BME280;68687;52.030;7.110;2023-05-22T08:32:00;100697.88;;;23.06;60.33
41654;BME280;68687;52.030;7.110;2023-05-22T08:34:28;100702.19;;;22.97;61.38
41654;BME280;68687;52.030;7.110;2023-05-22T08:36:53;100699.81;;;23.10;60.77
41654;BME280;68687;52.030;7.110;2023-05-22T08:39:19;100701.75;;;23.62;61.11
41654;BME280;68687;52.030;7.110;2023-05-22T08:41:44;100703.94;;;23.65;59.52
41654;BME280;68687;52.030;7.110;2023-05-22T08:44:11;100698.09;;;23.52;59.30
41654;BME280;68687;52.030;7.110;2023-05-22T08:46:38;100697.94;;;23.73;59.80
41654;BME280;68687;52.030;7.110;2023-05-22T08:49:07;100708.91;;;23.68;59.65
41654;BME280;68687;52.030;7.110;2023-05-22T08:51:37;100697.47;;;23.97;57.59
41654;BME280;68687;52.030;7.110;2023-05-22T08:54:06;100691.97;;;23.87;57.67
41654;BME280;68687;52.030;7.110;2023-05-22T08:56:33;100700.75;;;23.89;58.48
41654;BME280;68687;52.030;7.110;2023-05-22T08:58:59;100689.91;;;24.70;56.15
41654;BME280;68687;52.030;7.110;2023-05-22T09:01:29;100690.44;;;24.77;56.66
41654;BME280;68687;52.030;7.110;2023-05-22T09:03:59;100688.47;;;25.13;56.14
41654;BME280;68687;52.030;7.110;2023-05-22T09:06:24;100684.50;;;25.50;54.47
41654;BME280;68687;52.030;7.110;2023-05-22T09:08:50;100682.16;;;24.87;53.98
41654;BME280;68687;52.030;7.110;2023-05-22T09:11:16;100684.94;;;24.72;55.59
41654;BME280;68687;52.030;7.110;2023-05-22T09:13:41;100677.22;;;24.89;55.89
41654;BME280;68687;52.030;7.110;2023-05-22T09:16:10;100681.34;;;24.92;54.90
41654;BME280;68687;52.030;7.110;2023-05-22T09:18:37;100681.59;;;25.21;55.85
41654;BME280;68687;52.030;7.110;2023-05-22T09:21:03;100678.09;;;25.75;53.97
41654;BME280;68687;52.030;7.110;2023-05-22T09:23:28;100677.00;;;25.76;52.25
41654;BME280;68687;52.030;7.110;2023-05-22T09:26:03;100672.34;;;25.61;53.42
41654;BME280;68687;52.030;7.110;2023-05-22T09:28:33;100675.22;;;25.95;50.99
41654;BME280;68687;52.030;7.110;2023-05-22T09:30:59;100671.44;;;25.86;50.29
41654;BME280;68687;52.030;7.110;2023-05-22T09:33:25;100654.88;;;25.96;50.78
41654;BME280;68687;52.030;7.110;2023-05-22T09:35:53;100670.63;;;26.25;49.88
41654;BME280;68687;52.030;7.110;2023-05-22T09:38:27;100667.91;;;26.19;50.63
41654;BME280;68687;52.030;7.110;2023-05-22T09:40:53;100671.91;;;25.98;50.85
41654;BME280;68687;52.030;7.110;2023-05-22T09:43:20;100665.28;;;26.04;50.88
41654;BME280;68687;52.030;7.110;2023-05-22T09:45:46;100664.66;;;25.68;50.62
41654;BME280;68687;52.030;7.110;2023-05-22T09:48:15;100664.47;;;25.49;51.51
41654;BME280;68687;52.030;7.110;2023-05-22T09:50:46;100668.84;;;25.45;52.03
41654;BME280;68687;52.030;7.110;2023-05-22T09:53:14;100673.53;;;25.99;51.86
41654;BME280;68687;52.030;7.110;2023-05-22T09:55:40;100670.75;;;25.55;49.61
41654;BME280;68687;52.030;7.110;2023-05-22T09:58:12;100672.53;;;26.24;50.52
41654;BME280;68687;52.030;7.110;2023-05-22T10:00:38;100663.81;;;26.51;50.48
41654;BME280;68687;52.030;7.110;2023-05-22T10:03:07;100676.16;;;26.59;50.03
41654;BME280;68687;52.030;7.110;2023-05-22T10:05:36;100666.34;;;26.08;49.49
41654;BME280;68687;52.030;7.110;2023-05-22T10:08:13;100670.22;;;26.07;49.48
41654;BME280;68687;52.030;7.110;2023-05-22T10:10:41;100668.94;;;26.29;49.96
41654;BME280;68687;52.030;7.110;2023-05-22T10:13:09;100666.75;;;26.94;48.21
41654;BME280;68687;52.030;7.110;2023-05-22T10:15:39;100665.25;;;27.30;47.08
41654;BME280;68687;52.030;7.110;2023-05-22T10:18:04;100662.06;;;27.66;45.74
41654;BME280;68687;52.030;7.110;2023-05-22T10:20:30;100664.59;;;27.38;45.82
41654;BME280;68687;52.030;7.110;2023-05-22T10:22:55;100663.84;;;27.33;48.21
41654;BME280;68687;52.030;7.110;2023-05-22T10:25:21;100656.34;;;27.81;46.05
41654;BME280;68687;52.030;7.110;2023-05-22T10:27:50;100653.31;;;27.16;46.56
41654;BME280;68687;52.030;7.110;2023-05-22T10:33:23;100649.66;;;27.45;45.85
41654;BME280;68687;52.030;7.110;2023-05-22T10:41:24;100651.31;;;27.64;45.22
41654;BME280;68687;52.030;7.110;2023-05-22T10:43:50;100649.72;;;27.82;44.62
41654;BME280;68687;52.030;7.110;2023-05-22T10:46:16;100637.31;;;27.37;46.22
41654;BME280;68687;52.030;7.110;2023-05-22T10:48:46;100640.03;;;27.42;45.68
41654;BME280;68687;52.030;7.110;2023-05-22T10:51:13;100640.41;;;27.97;45.05
41654;BME280;68687;52.030;7.110;2023-05-22T10:53:39;100640.94;;;27.56;44.32
41654;BME280;68687;52.030;7.110;2023-05-22T10:56:11;100639.91;;;27.04;44.64
41654;BME280;68687;52.030;7.110;2023-05-22T10:58:36;100638.81;;;26.76;45.65
41654;BME280;68687;52.030;7.110;2023-05-22T11:01:24;100637.88;;;27.58;45.29
41654;BME280;68687;52.030;7.110;2023-05-22T11:06:48;100641.34;;;27.87;43.20
41654;BME280;68687;52.030;7.110;2023-05-22T11:09:42;100638.09;;;27.61;43.81
41654;BME280;68687;52.030;7.110;2023-05-22T11:12:28;100637.31;;;28.36;43.08
41654;BME280;68687;52.030;7.110;2023-05-22T11:15:10;100625.41;;;28.54;41.30
41654;BME280;68687;52.030;7.110;2023-05-22T11:20:23;100624.50;;;28.73;41.93
41654;BME280;68687;52.030;7.110;2023-05-22T11:23:10;100618.16;;;28.58;42.84
41654;BME280;68687;52.030;7.110;2023-05-22T11:25:36;100617.13;;;28.68;41.14
41654;BME280;68687;52.030;7.110;2023-05-22T11:28:04;100619.31;;;28.39;42.98
41654;BME280;68687;52.030;7.110;2023-05-22T11:30:30;100618.78;;;27.85;43.39
41654;BME280;68687;52.030;7.110;2023-05-22T11:33:04;100624.19;;;28.09;40.54
41654;BME280;68687;52.030;7.110;2023-05-22T11:35:33;100628.41;;;27.69;41.66
41654;BME280;68687;52.030;7.110;2023-05-22T11:38:02;100627.00;;;28.42;41.50
41654;BME280;68687;52.030;7.110;2023-05-22T11:40:29;100619.75;;;28.46;40.95
41654;BME280;68687;52.030;7.110;2023-05-22T11:42:55;100628.41;;;28.39;41.64
41654;BME280;68687;52.030;7.110;2023-05-22T11:45:21;100626.69;;;29.03;40.38
41654;BME280;68687;52.030;7.110;2023-05-22T11:47:49;100616.31;;;28.68;38.44
41654;BME280;68687;52.030;7.110;2023-05-22T11:50:15;100620.00;;;28.63;40.62
41654;BME280;68687;52.030;7.110;2023-05-22T11:52:41;100623.03;;;27.96;41.03
41654;BME280;68687;52.030;7.110;2023-05-22T11:55:08;100610.09;;;28.11;40.51
41654;BME280;68687;52.030;7.110;2023-05-22T11:57:34;100607.13;;;28.26;41.11
41654;BME280;68687;52.030;7.110;2023-05-22T12:00:01;100614.81;;;28.43;40.78
41654;BME280;68687;52.030;7.110;2023-05-22T12:02:28;100604.56;;;28.11;40.71
41654;BME280;68687;52.030;7.110;2023-05-22T12:04:55;100614.28;;;28.27;40.94
41654;BME280;68687;52.030;7.110;2023-05-22T12:07:21;100612.94;;;28.24;40.53
41654;BME280;68687;52.030;7.110;2023-05-22T12:09:47;100615.78;;;27.63;42.28
41654;BME280;68687;52.030;7.110;2023-05-22T12:12:14;100610.19;;;27.25;42.09
41654;BME280;68687;52.030;7.110;2023-05-22T12:14:43;100605.53;;;27.02;42.99
41654;BME280;68687;52.030;7.110;2023-05-22T12:17:11;100601.06;;;27.06;43.75
41654;BME280;68687;52.030;7.110;2023-05-22T12:19:38;100611.91;;;26.68;44.16
41654;BME280;68687;52.030;7.110;2023-05-22T12:22:04;100603.97;;;26.91;43.14
41654;BME280;68687;52.030;7.110;2023-05-22T12:24:37;100599.00;;;26.93;42.61
41654;BME280;68687;52.030;7.110;2023-05-22T12:27:09;100606.22;;;26.84;43.89
41654;BME280;68687;52.030;7.110;2023-05-22T12:29:38;100605.66;;;26.63;44.08
41654;BME280;68687;52.030;7.110;2023-05-22T12:32:07;100607.06;;;26.60;43.52
41654;BME280;68687;52.030;7.110;2023-05-22T12:34:34;100608.06;;;26.40;44.17
41654;BME280;68687;52.030;7.110;2023-05-22T12:37:00;100599.31;;;26.28;44.10
41654;BME280;68687;52.030;7.110;2023-05-22T12:39:26;100595.25;;;26.21;44.46
41654;BME280;68687;52.030;7.110;2023-05-22T12:41:55;100597.44;;;26.24;44.94
41654;BME280;68687;52.030;7.110;2023-05-22T12:44:20;100595.19;;;26.31;43.98
41654;BME280;68687;52.030;7.110;2023-05-22T12:46:46;100587.66;;;26.70;44.50
41654;BME280;68687;52.030;7.110;2023-05-22T12:49:11;100577.66;;;26.79;44.33
41654;BME280;68687;52.030;7.110;2023-05-22T12:51:36;100582.69;;;26.96;44.04
41654;BME280;68687;52.030;7.110;2023-05-22T12:54:02;100576.50;;;26.86;43.83
41654;BME280;68687;52.030;7.110;2023-05-22T12:56:28;100581.19;;;27.09;43.72
41654;BME280;68687;52.030;7.110;2023-05-22T12:58:55;100578.94;;;27.11;42.77
41654;BME280;68687;52.030;7.110;2023-05-22T13:01:20;100585.56;;;27.34;42.32
41654;BME280;68687;52.030;7.110;2023-05-22T13:03:46;100582.41;;;26.74;43.89
41654;BME280;68687;52.030;7.110;2023-05-22T13:06:12;100583.41;;;27.07;43.24
41654;BME280;68687;52.030;7.110;2023-05-22T13:08:40;100584.09;;;27.42;42.88
41654;BME280;68687;52.030;7.110;2023-05-22T13:11:06;100587.25;;;27.30;41.68
41654;BME280;68687;52.030;7.110;2023-05-22T13:13:31;100582.59;;;27.06;41.40
41654;BME280;68687;52.030;7.110;2023-05-22T13:15:56;100591.72;;;26.78;42.86
41654;BME280;68687;52.030;7.110;2023-05-22T13:18:24;100579.78;;;26.88;42.67
41654;BME280;68687;52.030;7.110;2023-05-22T13:20:50;100578.28;;;26.71;43.23